PWSweather.com
Personal Weather Stations
Station Observations
BANEKERE1
AntwerpenBE

AntwerpenBE

Lat: 51.2809101, Lon: 4.4202713

Elevation: 40

Station Type:

http://www.akker.be

Latest ConditionsUpdated 2:30:05 PM GMT+01:01 Friday, Jan 19, 2018
Currently Today's Max Today's Min Today's Average
Temperature 43.2°F6.2°C 43.9°F6.6°C 38.8°F3.8°C 41.1°F5.1°C
Dew Point 35.8°F2.1°C 36.9°F2.7°C 35.4°F1.9°C 36.2°F2.3°C
Winds 8.1 mph SW13.0 kmh SW 9.2 mph S14.8 kmh S - 4.3 mph 6.9 kmh
Wind Gusts 9.2 mph14.8 kmh 12.7 mph20.4 kmh - -
Humidity 75% 88% 75% 83%
Pressure 29.82 in1009.8 mb 29.83 in1010.2 mb 29.66 in1004.4 mb -
Precipitation - 0.03 in0.8 mm - -
Hour Temp Dew Point Humidity Winds Wind Gusts Pressure Precip Precip Rate Daily Precip Total
02:30 PM 43.2°F6.2°C 35.8°F2.1°C 75% 8.1 mph SW13.0 kmh SW 9.2 mph14.8 kmh 29.82 in1009.8 mb - 0.00 in0.0 mm 0.03 in0.8 mm
02:20 PM 43.1°F6.2°C 36.0°F2.2°C 76% 8.1 mph SSW13.0 kmh SSW 12.7 mph20.4 kmh 29.82 in1009.8 mb - 0.00 in0.0 mm 0.03 in0.8 mm
02:10 PM 43.3°F6.3°C 35.9°F2.2°C 75% 6.9 mph S11.1 kmh S 12.7 mph20.4 kmh 29.82 in1009.8 mb - 0.00 in0.0 mm 0.03 in0.8 mm
02:00 PM 43.1°F6.2°C 36.0°F2.2°C 76% 9.2 mph SSW14.8 kmh SSW 12.7 mph20.4 kmh 29.82 in1009.8 mb - 0.00 in0.0 mm 0.03 in0.8 mm
01:50 PM 43.1°F6.2°C 36.4°F2.4°C 77% 4.6 mph S7.4 kmh S 12.7 mph20.4 kmh 29.82 in1009.8 mb - 0.00 in0.0 mm 0.03 in0.8 mm
01:40 PM 43.4°F6.3°C 36.4°F2.4°C 76% 5.8 mph SSW9.3 kmh SSW 9.2 mph14.8 kmh 29.82 in1009.8 mb - 0.00 in0.0 mm 0.03 in0.8 mm
01:30 PM 43.9°F6.6°C 36.5°F2.5°C 75% 6.9 mph S11.1 kmh S 12.7 mph20.4 kmh 29.82 in1009.8 mb - 0.00 in0.0 mm 0.03 in0.8 mm
01:20 PM 43.6°F6.4°C 36.9°F2.7°C 77% 5.8 mph S9.3 kmh S 8.1 mph13.0 kmh 29.82 in1009.8 mb - 0.00 in0.0 mm 0.03 in0.8 mm
01:10 PM 43.3°F6.3°C 36.9°F2.7°C 78% 6.9 mph SSW11.1 kmh SSW 12.7 mph20.4 kmh 29.82 in1009.8 mb - 0.00 in0.0 mm 0.03 in0.8 mm
01:00 PM 43.1°F6.2°C 36.7°F2.6°C 78% 8.1 mph SSW13.0 kmh SSW 12.7 mph20.4 kmh 29.82 in1009.8 mb - 0.00 in0.0 mm 0.03 in0.8 mm
12:50 PM 42.8°F6.0°C 36.8°F2.7°C 79% 6.9 mph S11.1 kmh S 9.2 mph14.8 kmh 29.82 in1009.8 mb - 0.00 in0.0 mm 0.03 in0.8 mm
12:40 PM 42.2°F5.7°C 36.8°F2.7°C 81% 9.2 mph S14.8 kmh S 10.4 mph16.7 kmh 29.82 in1009.8 mb - 0.00 in0.0 mm 0.03 in0.8 mm
12:30 PM 40.7°F4.8°C 36.0°F2.2°C 83% 5.8 mph SSW9.3 kmh SSW 10.4 mph16.7 kmh 29.83 in1010.2 mb - 0.00 in0.0 mm 0.03 in0.8 mm
03:21 AM 40.2°F4.6°C 36.1°F2.3°C 85% 1.2 mph SW1.9 kmh SW 9.2 mph14.8 kmh 29.71 in1006.1 mb - 0.00 in0.0 mm 0.01 in0.3 mm
03:11 AM 40.3°F4.6°C 36.1°F2.3°C 85% 1.2 mph SW1.9 kmh SW 2.3 mph3.7 kmh 29.70 in1005.8 mb - 0.00 in0.0 mm 0.01 in0.3 mm
03:00 AM 40.3°F4.6°C 36.1°F2.3°C 85% 1.2 mph W1.9 kmh W 4.6 mph7.4 kmh 29.70 in1005.8 mb - 0.00 in0.0 mm 0.01 in0.3 mm
02:51 AM 40.2°F4.6°C 36.1°F2.3°C 85% 1.2 mph S1.9 kmh S 2.3 mph3.7 kmh 29.70 in1005.8 mb - 0.00 in0.0 mm 0.01 in0.3 mm
02:41 AM 40.2°F4.6°C 36.1°F2.3°C 85% 1.2 mph W1.9 kmh W 8.1 mph13.0 kmh 29.69 in1005.4 mb - 0.00 in0.0 mm 0.01 in0.3 mm
02:31 AM 40.2°F4.6°C 36.3°F2.4°C 86% 3.5 mph SW5.6 kmh SW 10.4 mph16.7 kmh 29.69 in1005.4 mb - 0.00 in0.0 mm 0.01 in0.3 mm
02:21 AM 40.2°F4.6°C 36.3°F2.4°C 86% 2.3 mph WSW3.7 kmh WSW 4.6 mph7.4 kmh 29.69 in1005.4 mb - 0.00 in0.0 mm 0.01 in0.3 mm
02:11 AM 40.0°F4.4°C 36.2°F2.3°C 86% 3.5 mph SW5.6 kmh SW 10.4 mph16.7 kmh 29.68 in1005.1 mb - 0.00 in0.0 mm 0.01 in0.3 mm
02:00 AM 39.7°F4.3°C 35.8°F2.1°C 86% 3.5 mph SSW5.6 kmh SSW 9.2 mph14.8 kmh 29.68 in1005.1 mb - 0.00 in0.0 mm 0.01 in0.3 mm
01:51 AM 39.7°F4.3°C 35.9°F2.2°C 86% 3.5 mph S5.6 kmh S 5.8 mph9.3 kmh 29.68 in1005.1 mb - 0.00 in0.0 mm 0.01 in0.3 mm
01:41 AM 39.7°F4.3°C 36.1°F2.3°C 87% 4.6 mph SW7.4 kmh SW 8.1 mph13.0 kmh 29.68 in1005.1 mb - 0.00 in0.0 mm 0.01 in0.3 mm
01:32 AM 39.5°F4.2°C 36.0°F2.2°C 87% 3.5 mph SSW5.6 kmh SSW 11.5 mph18.5 kmh 29.67 in1004.7 mb - 0.00 in0.0 mm 0.01 in0.3 mm
01:22 AM 39.5°F4.2°C 36.0°F2.2°C 87% 2.3 mph SW3.7 kmh SW 4.6 mph7.4 kmh 29.67 in1004.7 mb - 0.00 in0.0 mm 0.01 in0.3 mm
01:11 AM 39.4°F4.1°C 35.9°F2.2°C 87% 2.3 mph SSW3.7 kmh SSW 3.5 mph5.6 kmh 29.67 in1004.7 mb - 0.01 in0.3 mm 0.01 in0.3 mm
01:00 AM 39.5°F4.2°C 35.9°F2.2°C 87% 1.2 mph SW1.9 kmh SW 3.5 mph5.6 kmh 29.67 in1004.7 mb - 0.01 in0.3 mm 0.01 in0.3 mm
12:51 AM 39.5°F4.2°C 36.0°F2.2°C 87% 2.3 mph SW3.7 kmh SW 5.8 mph9.3 kmh 29.67 in1004.7 mb - 0.00 in0.0 mm 0.03 in0.8 mm
12:41 AM 39.5°F4.2°C 35.9°F2.2°C 87% 2.3 mph SW3.7 kmh SW 3.5 mph5.6 kmh 29.66 in1004.4 mb - 0.00 in0.0 mm 0.03 in0.8 mm
12:21 AM 39.0°F3.9°C 35.4°F1.9°C 87% 1.2 mph SW1.9 kmh SW 3.5 mph5.6 kmh 29.66 in1004.4 mb - 0.00 in0.0 mm 0.03 in0.8 mm
12:00 AM 38.8°F3.8°C 35.6°F2.0°C 88% 2.3 mph S3.7 kmh S 4.6 mph7.4 kmh 29.66 in1004.4 mb - 0.03 in0.8 mm 0.03 in0.8 mm